Time;durP1;ratioP1;P1;durP2;ratioP2;P2;SDS_P1;SDS_P2;PMS_P1;PMS_P2;Temp;Humidity;BMP_temperature;BMP_pressure;BME280_temperature;BME280_humidity;BME280_pressure;Samples;Min_cycle;Max_cycle;Signal;HPM_P1;HPM_P2
2022/11/28 00:02:09;;;;;;;5.70;3.23;;;16.30;64.60;17.30;100380.00;;;;5050791;28;20170;-45
2022/11/28 00:04:35;;;;;;;5.40;3.13;;;16.30;64.60;17.30;100386.00;;;;5050707;28;20171;-45
2022/11/28 00:07:00;;;;;;;4.83;3.03;;;16.30;64.60;17.30;100381.00;;;;5050642;28;20187;-45
2022/11/28 00:09:26;;;;;;;6.07;3.03;;;16.30;64.50;17.30;100392.00;;;;5050435;28;20219;-46
2022/11/28 00:11:52;;;;;;;6.53;3.03;;;16.30;64.60;17.30;100400.00;;;;5050166;28;20160;-48
2022/11/28 00:14:18;;;;;;;5.23;3.40;;;16.20;64.50;17.30;100391.00;;;;5050541;28;20667;-45
2022/11/28 00:16:44;;;;;;;4.90;3.10;;;16.20;64.50;17.30;100383.00;;;;5016011;28;20203;-45
2022/11/28 00:19:10;;;;;;;6.60;3.07;;;16.20;64.50;17.20;100383.00;;;;5032572;28;20182;-45
2022/11/28 00:21:37;;;;;;;6.80;3.20;;;16.20;64.40;17.20;100383.00;;;;5050043;28;20287;-45
2022/11/28 00:24:03;;;;;;;6.47;3.07;;;16.20;64.40;17.20;100382.00;;;;5050001;28;20171;-45
2022/11/28 00:26:32;;;;;;;4.30;3.13;;;16.20;64.50;17.10;100372.00;;;;5049568;28;20887;-46
2022/11/28 00:28:57;;;;;;;6.20;3.10;;;16.20;64.50;17.10;100373.00;;;;5049619;28;20208;-44
2022/11/28 00:31:26;;;;;;;4.73;2.97;;;16.10;64.30;17.10;100368.00;;;;5049390;28;20254;-45
2022/11/28 00:33:52;;;;;;;5.13;3.30;;;16.20;64.50;17.10;100370.00;;;;5049895;28;20240;-46
2022/11/28 00:36:18;;;;;;;3.67;3.03;;;16.10;64.40;17.10;100380.00;;;;5049956;28;20195;-46
2022/11/28 00:38:44;;;;;;;4.77;3.10;;;16.10;64.40;17.10;100347.00;;;;5049828;28;20648;-45
2022/11/28 00:41:19;;;;;;;3.67;2.80;;;16.10;64.30;17.00;100373.00;;;;5031671;28;20222;-45
2022/11/28 00:43:44;;;;;;;4.00;3.10;;;16.10;64.40;17.10;100369.00;;;;5050773;28;20522;-45
2022/11/28 00:46:11;;;;;;;3.60;2.63;;;16.10;64.30;17.00;100354.00;;;;5054096;28;20213;-44
2022/11/28 00:48:37;;;;;;;4.63;3.10;;;16.10;64.40;17.00;100365.00;;;;5051286;28;20207;-45
2022/11/28 00:51:10;;;;;;;3.80;2.70;;;16.10;64.30;17.00;100356.00;;;;5049415;28;20170;-46
2022/11/28 00:53:36;;;;;;;3.27;2.97;;;16.00;64.30;17.00;100359.00;;;;5049399;28;20166;-45
2022/11/28 00:56:06;;;;;;;6.33;2.90;;;16.00;64.30;17.00;100349.00;;;;5049691;28;20191;-45
2022/11/28 00:58:33;;;;;;;3.93;2.80;;;16.00;64.30;17.00;100342.00;;;;5050169;28;20202;-45
2022/11/28 01:00:58;;;;;;;3.27;2.73;;;16.00;64.30;17.00;100342.00;;;;5049654;28;20174;-45
2022/11/28 01:03:24;;;;;;;2.97;2.63;;;16.00;64.30;16.90;100325.00;;;;5049617;28;20166;-45
2022/11/28 01:05:50;;;;;;;3.30;2.90;;;16.00;64.20;16.90;100325.00;;;;5049068;28;20200;-45
2022/11/28 01:08:16;;;;;;;3.17;2.60;;;16.00;64.20;16.90;100331.00;;;;5049383;28;20204;-46
2022/11/28 01:10:43;;;;;;;3.40;2.70;;;16.00;64.30;16.90;100324.00;;;;5049303;28;20185;-46
2022/11/28 01:13:09;;;;;;;3.57;2.90;;;15.90;64.20;16.90;100325.00;;;;5049051;28;20179;-45
2022/11/28 01:15:35;;;;;;;4.53;3.00;;;15.90;64.10;16.90;100320.00;;;;5049054;28;20568;-45
2022/11/28 01:18:01;;;;;;;3.63;2.70;;;15.90;64.10;16.90;100315.00;;;;5031354;28;20232;-45
2022/11/28 01:20:27;;;;;;;4.60;2.63;;;15.90;64.10;16.90;100314.00;;;;5048785;28;20178;-44
2022/11/28 01:22:53;;;;;;;3.40;2.70;;;15.90;64.10;16.90;100314.00;;;;5048924;28;20188;-44
2022/11/28 01:25:19;;;;;;;3.80;2.63;;;15.90;64.10;16.90;100330.00;;;;5048677;28;20174;-45
2022/11/28 01:27:44;;;;;;;4.20;2.90;;;15.90;64.10;16.80;100321.00;;;;5050770;28;20179;-45
2022/11/28 01:30:10;;;;;;;3.93;2.70;;;15.90;64.10;16.80;100312.00;;;;5061602;28;20209;-45
2022/11/28 01:32:36;;;;;;;3.10;2.80;;;15.80;64.10;16.80;100316.00;;;;5053582;28;20504;-45
2022/11/28 01:35:02;;;;;;;3.10;2.80;;;15.80;64.10;16.80;100320.00;;;;5048820;28;20177;-46
2022/11/28 01:37:29;;;;;;;3.53;2.70;;;15.80;64.10;16.80;100313.00;;;;5048827;28;20682;-45
2022/11/28 01:39:54;;;;;;;3.57;2.80;;;15.80;64.10;16.80;100314.00;;;;5048736;28;20577;-45
2022/11/28 01:42:20;;;;;;;3.27;2.70;;;15.80;64.10;16.70;100302.00;;;;5029928;28;20186;-46
2022/11/28 01:44:48;;;;;;;2.93;2.60;;;15.80;64.10;16.70;100301.00;;;;5049004;28;20561;-45
2022/11/28 01:47:19;;;;;;;3.53;2.70;;;15.80;64.10;16.70;100299.00;;;;5048514;28;20217;-45
2022/11/28 01:49:44;;;;;;;2.90;2.60;;;15.70;64.00;16.70;100293.00;;;;5014908;28;20191;-46
2022/11/28 01:52:13;;;;;;;3.00;2.70;;;15.70;64.00;16.70;100298.00;;;;5014124;28;20697;-46
2022/11/28 01:54:40;;;;;;;3.57;2.70;;;15.70;64.10;16.70;100233.00;;;;5014608;28;20174;-46
2022/11/28 01:57:10;;;;;;;3.17;2.73;;;15.70;64.00;16.70;100280.00;;;;5030365;28;20221;-46
2022/11/28 01:59:39;;;;;;;4.00;2.80;;;15.70;64.00;16.70;100282.00;;;;5014300;28;20209;-46
2022/11/28 02:02:08;;;;;;;2.80;2.60;;;15.70;64.10;16.70;100278.00;;;;5030445;28;20244;-46
2022/11/28 02:04:34;;;;;;;4.03;2.50;;;15.70;64.00;16.60;100284.00;;;;5032776;28;20186;-45
2022/11/28 02:06:59;;;;;;;4.43;2.70;;;15.70;64.00;16.60;100271.00;;;;5049466;28;20208;-46
2022/11/28 02:09:25;;;;;;;3.40;2.77;;;15.70;64.00;16.60;100267.00;;;;5030563;28;20194;-46
2022/11/28 02:11:51;;;;;;;3.23;2.70;;;15.70;64.00;16.60;100266.00;;;;5047957;28;20818;-45
2022/11/28 02:14:53;;;;;;;3.00;2.70;;;15.60;63.90;16.60;100255.00;;;;5048425;28;20170;-45
2022/11/28 02:17:59;;;;;;;2.60;2.40;;;15.60;63.90;16.60;100262.00;;;;5047647;28;20209;-45
2022/11/28 02:20:49;;;;;;;2.73;2.53;;;15.60;63.90;16.60;100252.00;;;;5030414;28;20596;-45
2022/11/28 02:23:40;;;;;;;2.70;2.50;;;15.60;63.90;16.50;100244.00;;;;5048035;28;20917;-45
2022/11/28 02:26:32;;;;;;;3.10;2.60;;;15.60;64.00;16.50;100225.00;;;;5048071;28;20295;-45
2022/11/28 02:29:15;;;;;;;2.90;2.60;;;15.60;64.10;16.50;100237.00;;;;5030538;28;20555;-44
2022/11/28 02:32:09;;;;;;;3.87;2.67;;;15.60;64.00;16.50;100247.00;;;;5047912;28;20229;-45
2022/11/28 02:35:06;;;;;;;2.70;2.50;;;15.60;64.00;16.50;100261.00;;;;5031297;28;20338;-44
2022/11/28 02:37:53;;;;;;;2.80;2.47;;;15.50;63.90;16.40;100259.00;;;;5029949;28;20202;-45
2022/11/28 02:40:26;;;;;;;3.23;2.77;;;15.50;63.90;16.40;100260.00;;;;5047955;28;20169;-45
2022/11/28 02:43:38;;;;;;;2.70;2.50;;;15.50;63.90;16.40;100259.00;;;;5013850;28;20170;-45
2022/11/28 02:46:59;;;;;;;2.70;2.50;;;15.50;63.90;16.40;100265.00;;;;5035106;28;20563;-46
2022/11/28 02:49:48;;;;;;;2.90;2.60;;;15.50;63.90;16.40;100262.00;;;;5048048;28;20198;-46
2022/11/28 02:52:29;;;;;;;2.53;2.33;;;15.50;64.00;16.40;100256.00;;;;5013920;28;20175;-45
2022/11/28 02:54:54;;;;;;;2.80;2.60;;;15.40;63.90;16.40;100248.00;;;;5017385;28;20204;-45
2022/11/28 02:57:20;;;;;;;3.03;2.83;;;15.40;63.90;16.40;100259.00;;;;5033812;28;20190;-45
2022/11/28 02:59:50;;;;;;;3.10;2.80;;;15.40;63.80;16.30;100257.00;;;;5051974;28;20178;-47
2022/11/28 03:02:29;;;;;;;2.63;2.43;;;15.40;63.80;16.40;100243.00;;;;5051928;28;20162;-47
2022/11/28 03:05:06;;;;;;;2.60;2.40;;;15.40;63.90;16.40;100236.00;;;;5051544;28;20158;-46
2022/11/28 03:08:04;;;;;;;2.60;2.40;;;15.40;63.90;16.40;100242.00;;;;5051623;28;20201;-46
2022/11/28 03:10:40;;;;;;;3.43;2.60;;;15.40;63.90;16.30;100241.00;;;;5036631;28;20185;-46
2022/11/28 03:13:51;;;;;;;2.70;2.50;;;15.40;63.90;16.30;100246.00;;;;5033642;28;20620;-46
2022/11/28 03:16:26;;;;;;;2.90;2.60;;;15.40;64.00;16.30;100252.00;;;;5035319;28;20320;-46
2022/11/28 03:19:16;;;;;;;2.67;2.47;;;15.40;63.90;16.30;100257.00;;;;5033685;28;20189;-46
2022/11/28 03:22:12;;;;;;;2.60;2.40;;;15.40;63.90;16.30;100264.00;;;;5035138;28;20159;-44
2022/11/28 03:24:47;;;;;;;2.70;2.43;;;15.30;63.70;16.30;100249.00;;;;5022437;28;20171;-44
2022/11/28 03:27:33;;;;;;;2.73;2.53;;;15.30;63.80;16.30;100271.00;;;;5033567;28;20731;-45
2022/11/28 03:30:15;;;;;;;2.80;2.60;;;15.30;63.80;16.30;100264.00;;;;5017596;28;20821;-44
2022/11/28 03:32:41;;;;;;;2.87;2.67;;;15.30;63.80;16.20;100252.00;;;;5017732;28;20158;-45
2022/11/28 03:35:17;;;;;;;2.67;2.30;;;15.30;63.90;16.30;100253.00;;;;5033852;28;20201;-46
2022/11/28 03:37:55;;;;;;;2.60;2.40;;;15.30;64.00;16.20;100245.00;;;;5017035;28;20166;-46
2022/11/28 03:40:27;;;;;;;3.17;2.50;;;15.20;63.70;16.30;100249.00;;;;5050858;28;20177;-46
2022/11/28 03:42:57;;;;;;;2.80;2.60;;;15.20;63.90;16.20;100225.00;;;;5033104;28;20190;-46
2022/11/28 03:45:25;;;;;;;2.57;2.37;;;15.20;63.80;16.20;100233.00;;;;5016824;28;20246;-45
2022/11/28 03:48:01;;;;;;;3.00;2.70;;;15.20;63.90;16.20;100217.00;;;;5016609;28;20785;-46
2022/11/28 03:50:40;;;;;;;2.60;2.40;;;15.20;63.80;16.20;100209.00;;;;5033470;28;20185;-46
2022/11/28 03:53:16;;;;;;;2.60;2.40;;;15.20;63.90;16.20;100207.00;;;;5000100;28;20177;-45
2022/11/28 03:55:55;;;;;;;2.80;2.60;;;15.20;64.00;16.20;100197.00;;;;5017104;28;20197;-45
2022/11/28 03:58:42;;;;;;;2.50;2.30;;;15.20;64.00;16.20;100203.00;;;;5033375;28;20165;-46
2022/11/28 04:01:35;;;;;;;2.97;2.70;;;15.20;63.90;16.20;100199.00;;;;5016929;28;20166;-46
2022/11/28 04:04:32;;;;;;;2.50;2.30;;;15.20;63.90;16.20;100210.00;;;;5032478;28;20163;-45
2022/11/28 04:07:44;;;;;;;3.40;2.40;;;15.20;63.90;16.20;100216.00;;;;5032749;28;20561;-46
2022/11/28 04:10:21;;;;;;;2.60;2.40;;;15.20;63.90;16.20;100209.00;;;;5047755;28;20205;-46
2022/11/28 04:13:08;;;;;;;2.60;2.40;;;15.10;63.80;16.10;100207.00;;;;5056544;28;20186;-45
2022/11/28 04:15:50;;;;;;;2.80;2.50;;;15.10;63.80;16.10;100217.00;;;;5017235;28;20182;-45
2022/11/28 04:18:50;;;;;;;2.70;2.50;;;15.10;63.80;16.10;100223.00;;;;5032649;28;20155;-45
2022/11/28 04:21:31;;;;;;;2.83;2.63;;;15.10;63.80;16.10;100228.00;;;;5035518;28;20210;-47
2022/11/28 04:24:02;;;;;;;2.63;2.43;;;15.10;63.80;16.10;100204.00;;;;5032234;28;20181;-45
2022/11/28 04:26:47;;;;;;;3.20;2.43;;;15.10;63.80;16.10;100233.00;;;;5032085;28;20213;-45
2022/11/28 04:29:16;;;;;;;2.50;2.30;;;15.10;64.20;16.10;100217.00;;;;5023696;28;20319;-45
2022/11/28 04:31:42;;;;;;;4.40;2.27;;;15.10;64.10;16.10;100201.00;;;;5051995;28;20166;-44
2022/11/28 04:34:08;;;;;;;2.53;2.33;;;15.10;64.20;16.10;100210.00;;;;5048781;28;20194;-45
2022/11/28 04:36:37;;;;;;;2.60;2.40;;;15.10;64.10;16.10;100204.00;;;;5034133;28;20399;-46
2022/11/28 04:39:03;;;;;;;2.73;2.53;;;15.10;64.10;16.10;100214.00;;;;5018446;28;20195;-44
2022/11/28 04:41:40;;;;;;;2.63;2.43;;;15.00;64.00;16.10;100201.00;;;;5018112;28;20268;-47
2022/11/28 04:44:42;;;;;;;3.27;2.47;;;15.00;63.90;16.10;100196.00;;;;5018435;28;20200;-45
2022/11/28 04:47:08;;;;;;;3.10;2.63;;;15.00;63.90;16.00;100216.00;;;;5041805;28;20295;-45
2022/11/28 04:49:34;;;;;;;3.13;2.60;;;15.00;64.00;16.00;100213.00;;;;5019295;28;20284;-46
2022/11/28 04:52:41;;;;;;;2.97;2.60;;;15.00;63.90;16.00;100215.00;;;;5069558;28;20600;-45
2022/11/28 04:55:10;;;;;;;2.70;2.50;;;15.00;64.10;16.00;100216.00;;;;5054099;28;20157;-44
2022/11/28 04:57:48;;;;;;;2.60;2.40;;;14.90;63.90;16.00;100241.00;;;;5035422;28;20198;-45
2022/11/28 05:00:17;;;;;;;2.87;2.60;;;14.90;63.80;16.00;100237.00;;;;5035417;28;20181;-45
2022/11/28 05:02:44;;;;;;;3.43;2.77;;;14.90;63.70;16.00;100209.00;;;;5035095;28;20243;-46
2022/11/28 05:05:13;;;;;;;4.00;3.00;;;14.90;63.70;16.00;100214.00;;;;5018311;28;20285;-45
2022/11/28 05:07:39;;;;;;;3.00;2.70;;;14.90;63.70;15.90;100231.00;;;;5035434;28;20189;-45
2022/11/28 05:10:06;;;;;;;2.80;2.60;;;14.90;63.70;16.00;100227.00;;;;5069441;28;20333;-46
2022/11/28 05:12:32;;;;;;;3.63;3.30;;;14.90;63.80;15.90;100231.00;;;;5051866;28;20263;-45
2022/11/28 05:14:57;;;;;;;3.33;2.90;;;14.80;63.70;15.90;100239.00;;;;5068538;28;20193;-45
2022/11/28 05:17:23;;;;;;;3.93;2.77;;;14.90;63.80;15.90;100240.00;;;;5068958;28;20205;-47
2022/11/28 05:19:49;;;;;;;3.10;2.80;;;14.90;63.70;15.90;100234.00;;;;5069896;28;20169;-47
2022/11/28 05:22:14;;;;;;;3.40;3.10;;;14.80;63.50;15.90;100240.00;;;;5069030;28;20243;-45
2022/11/28 05:24:40;;;;;;;3.80;2.83;;;14.80;63.50;15.90;100244.00;;;;5069419;28;20181;-46
2022/11/28 05:27:06;;;;;;;4.27;2.80;;;14.80;63.50;15.90;100248.00;;;;5068931;28;20204;-44
2022/11/28 05:29:32;;;;;;;3.13;2.83;;;14.80;63.50;15.90;100245.00;;;;5067155;28;20586;-44
2022/11/28 05:31:58;;;;;;;4.60;3.00;;;14.80;63.50;15.90;100244.00;;;;5050993;28;20657;-44
2022/11/28 05:34:24;;;;;;;4.23;3.00;;;14.80;63.50;15.90;100238.00;;;;5069387;28;20169;-45
2022/11/28 05:36:49;;;;;;;3.53;2.70;;;14.80;63.50;15.90;100230.00;;;;5067712;28;20193;-45
2022/11/28 05:39:15;;;;;;;4.37;2.90;;;14.80;63.50;15.90;100236.00;;;;5068084;28;20173;-45
2022/11/28 05:41:41;;;;;;;4.93;2.97;;;14.80;63.50;15.90;100238.00;;;;5049236;28;20174;-45
2022/11/28 05:44:06;;;;;;;3.63;3.00;;;14.80;63.50;15.90;100232.00;;;;5069154;28;20554;-45
2022/11/28 05:46:32;;;;;;;5.93;3.20;;;14.80;63.50;15.90;100247.00;;;;5068750;28;20193;-45
2022/11/28 05:48:58;;;;;;;4.27;2.93;;;14.80;63.60;15.90;100245.00;;;;5068652;28;20280;-46
2022/11/28 05:51:24;;;;;;;7.57;3.40;;;14.80;63.50;15.90;100246.00;;;;5050220;28;20177;-45
2022/11/28 05:53:49;;;;;;;6.47;3.20;;;14.80;63.70;15.90;100250.00;;;;5062930;28;20243;-44
2022/11/28 05:56:18;;;;;;;5.03;3.17;;;14.80;63.60;15.90;100240.00;;;;5062283;28;20190;-45
2022/11/28 05:58:44;;;;;;;6.37;3.50;;;14.80;63.30;15.90;100235.00;;;;5052238;28;20171;-44
2022/11/28 06:01:24;;;;;;;6.40;3.17;;;14.80;63.30;15.90;100231.00;;;;5048820;28;20189;-45
2022/11/28 06:03:51;;;;;;;6.67;3.20;;;14.80;63.40;15.90;100227.00;;;;5048727;28;20193;-45
2022/11/28 06:06:19;;;;;;;6.10;3.70;;;14.70;63.30;15.90;100224.00;;;;5030927;28;20260;-46
2022/11/28 06:08:45;;;;;;;5.17;3.27;;;14.70;63.20;15.90;100217.00;;;;5048791;28;20174;-45
2022/11/28 06:11:13;;;;;;;4.33;3.40;;;14.80;63.30;15.90;100211.00;;;;5048615;28;20167;-46
2022/11/28 06:13:40;;;;;;;5.43;3.20;;;14.80;63.30;15.90;100211.00;;;;5031835;28;20242;-45
2022/11/28 06:16:11;;;;;;;5.97;3.40;;;14.70;63.20;15.90;100209.00;;;;5048402;28;20221;-45
2022/11/28 06:18:37;;;;;;;3.97;3.23;;;14.70;63.20;15.90;100204.00;;;;5048561;28;20171;-46
2022/11/28 06:21:04;;;;;;;4.87;3.20;;;14.70;63.10;15.90;100210.00;;;;5030686;28;20174;-46
2022/11/28 06:23:30;;;;;;;3.80;3.30;;;14.70;63.20;15.90;100207.00;;;;5048504;28;20231;-45
2022/11/28 06:25:56;;;;;;;3.40;3.10;;;14.70;63.10;15.90;100194.00;;;;5048065;28;20770;-46
2022/11/28 06:28:21;;;;;;;4.70;3.20;;;14.70;63.20;15.90;100198.00;;;;5048184;28;20542;-44
2022/11/28 06:30:47;;;;;;;3.67;3.30;;;14.70;63.20;15.90;100201.00;;;;5047832;28;20750;-44
2022/11/28 06:33:13;;;;;;;3.50;3.20;;;14.70;63.10;15.90;100201.00;;;;5048224;28;20639;-45
2022/11/28 06:35:39;;;;;;;4.70;3.07;;;14.60;63.90;15.90;100198.00;;;;5048150;28;20189;-44
2022/11/28 06:38:04;;;;;;;3.27;2.97;;;14.60;63.20;15.80;100191.00;;;;5048456;28;20162;-44
2022/11/28 06:40:31;;;;;;;3.40;3.10;;;14.60;63.10;15.80;100181.00;;;;5048457;28;20608;-44
2022/11/28 06:42:56;;;;;;;3.37;3.07;;;14.60;63.10;15.80;100188.00;;;;5030675;28;20182;-45
2022/11/28 06:45:22;;;;;;;4.67;3.07;;;14.60;63.10;15.80;100190.00;;;;5048599;28;20178;-44
2022/11/28 06:47:48;;;;;;;3.30;3.00;;;14.60;63.10;15.80;100196.00;;;;5048874;28;20170;-45
2022/11/28 06:50:14;;;;;;;4.23;3.17;;;14.60;63.10;15.80;100202.00;;;;5054530;28;20198;-46
2022/11/28 06:52:39;;;;;;;3.73;3.30;;;14.60;63.00;15.80;100192.00;;;;5063045;28;20170;-46
2022/11/28 06:55:05;;;;;;;3.73;3.37;;;14.50;62.90;15.80;100194.00;;;;5032799;28;20808;-45
2022/11/28 06:57:31;;;;;;;3.83;3.33;;;14.50;62.90;15.70;100194.00;;;;5048287;28;20797;-45
2022/11/28 06:59:57;;;;;;;4.20;3.20;;;14.50;62.80;15.70;100198.00;;;;5048174;28;20171;-45
2022/11/28 07:02:23;;;;;;;3.27;3.07;;;14.50;62.80;15.70;100215.00;;;;5048122;28;20796;-45
2022/11/28 07:04:50;;;;;;;3.30;3.00;;;14.50;62.80;15.70;100206.00;;;;5048072;28;20182;-45
2022/11/28 07:07:16;;;;;;;3.50;3.20;;;14.50;62.80;15.70;100209.00;;;;5013819;28;20194;-45
2022/11/28 07:09:42;;;;;;;3.77;3.00;;;14.50;62.80;15.70;100211.00;;;;5029928;28;20194;-44
2022/11/28 07:12:07;;;;;;;3.53;3.23;;;14.50;62.80;15.70;100222.00;;;;5048003;28;20171;-44
2022/11/28 07:14:33;;;;;;;3.57;3.27;;;14.40;62.60;15.70;100232.00;;;;5047961;28;20206;-44
2022/11/28 07:16:59;;;;;;;3.23;2.93;;;14.50;62.80;15.70;100227.00;;;;5048096;28;20240;-45
2022/11/28 07:19:25;;;;;;;3.73;3.30;;;14.40;62.70;15.70;100228.00;;;;5048247;28;20174;-44
2022/11/28 07:21:50;;;;;;;3.60;3.30;;;14.40;62.60;15.60;100228.00;;;;5047952;28;20186;-44
2022/11/28 07:24:17;;;;;;;3.67;3.20;;;14.40;62.70;15.60;100229.00;;;;5048037;28;20181;-44
2022/11/28 07:26:43;;;;;;;3.70;3.40;;;14.40;62.60;15.60;100234.00;;;;5029692;28;20202;-45
2022/11/28 07:29:14;;;;;;;3.60;3.30;;;14.40;62.60;15.60;100236.00;;;;5047853;28;20298;-45
2022/11/28 07:31:39;;;;;;;4.50;3.20;;;14.40;63.40;15.60;100230.00;;;;5029859;28;20162;-45
2022/11/28 07:34:05;;;;;;;3.30;3.00;;;14.40;62.60;15.60;100243.00;;;;5048135;28;20174;-45
2022/11/28 07:36:31;;;;;;;3.40;3.10;;;14.40;62.70;15.60;100235.00;;;;5046975;28;20186;-45
2022/11/28 07:38:58;;;;;;;3.27;2.97;;;14.40;62.70;15.60;100233.00;;;;5047743;28;20170;-45
2022/11/28 07:41:24;;;;;;;3.60;3.30;;;14.40;62.70;15.60;100228.00;;;;5051095;28;20232;-44
2022/11/28 07:43:53;;;;;;;3.30;3.00;;;14.40;62.70;15.60;100232.00;;;;5051714;28;20179;-44
2022/11/28 07:46:19;;;;;;;3.50;3.20;;;14.40;62.70;15.60;100238.00;;;;5033307;28;20255;-46
2022/11/28 07:48:45;;;;;;;3.50;3.20;;;14.30;62.60;15.60;100236.00;;;;5050566;28;20170;-44
2022/11/28 07:51:15;;;;;;;3.70;3.40;;;14.40;62.70;15.60;100234.00;;;;5051082;28;20228;-45
2022/11/28 07:53:41;;;;;;;3.33;3.03;;;14.30;62.60;15.60;100223.00;;;;5033266;28;20165;-44
2022/11/28 07:56:11;;;;;;;3.40;3.10;;;14.30;62.60;15.50;100231.00;;;;5050929;28;20182;-44
2022/11/28 07:58:37;;;;;;;3.33;3.10;;;14.30;62.60;15.50;100227.00;;;;5051465;28;20166;-46
2022/11/28 08:01:21;;;;;;;3.83;3.30;;;14.30;62.60;15.50;100228.00;;;;5051370;28;20174;-45
2022/11/28 08:03:47;;;;;;;3.53;3.23;;;14.30;62.70;15.50;100231.00;;;;5051319;28;20178;-44
2022/11/28 08:06:14;;;;;;;3.37;3.07;;;14.20;62.60;15.50;100231.00;;;;5050526;28;20269;-45
2022/11/28 08:08:39;;;;;;;3.47;3.17;;;14.30;62.70;15.50;100237.00;;;;5050859;28;20185;-45
2022/11/28 08:11:06;;;;;;;3.50;3.20;;;14.30;62.60;15.50;100222.00;;;;5050804;28;20255;-45
2022/11/28 08:13:33;;;;;;;3.67;3.37;;;14.30;62.70;15.50;100232.00;;;;5050755;28;20182;-45
2022/11/28 08:16:05;;;;;;;3.70;3.40;;;14.20;62.60;15.50;100223.00;;;;5050009;28;20725;-45
2022/11/28 08:18:31;;;;;;;3.60;3.30;;;14.20;62.60;15.50;100238.00;;;;5031815;28;20192;-44
2022/11/28 08:21:13;;;;;;;3.50;3.20;;;14.20;62.60;15.50;100232.00;;;;5049705;28;20185;-44
2022/11/28 08:23:39;;;;;;;3.50;3.20;;;14.20;62.60;15.50;100243.00;;;;5014481;28;20421;-49
2022/11/28 08:26:09;;;;;;;3.50;3.20;;;14.20;62.50;15.50;100250.00;;;;5052221;28;20197;-45
2022/11/28 08:28:35;;;;;;;3.57;3.27;;;14.20;62.60;15.50;100245.00;;;;5070291;28;20251;-46
2022/11/28 08:31:09;;;;;;;3.53;3.23;;;14.20;62.60;15.40;100242.00;;;;5062760;28;20177;-44
2022/11/28 08:33:34;;;;;;;3.33;3.00;;;14.20;62.60;15.40;100241.00;;;;5070369;28;20173;-44
2022/11/28 08:36:04;;;;;;;3.40;3.10;;;14.20;63.00;15.40;100236.00;;;;5063774;28;20202;-45
2022/11/28 08:38:30;;;;;;;4.00;3.30;;;14.30;62.90;15.40;100243.00;;;;5038526;28;20293;-44
2022/11/28 08:41:06;;;;;;;4.73;3.40;;;14.30;63.00;15.40;100248.00;;;;5070136;28;20814;-44
2022/11/28 08:43:33;;;;;;;5.23;3.10;;;14.30;62.90;15.40;100248.00;;;;5051178;28;20177;-45
2022/11/28 08:45:59;;;;;;;4.33;3.30;;;14.30;62.90;15.40;100241.00;;;;5049927;28;20194;-46
2022/11/28 08:48:24;;;;;;;4.87;3.40;;;14.40;63.10;15.50;100241.00;;;;5050139;28;20166;-45
2022/11/28 08:50:50;;;;;;;4.00;3.40;;;14.50;63.50;15.50;100233.00;;;;5049303;28;20206;-45
2022/11/28 08:53:16;;;;;;;3.37;3.07;;;14.60;63.30;15.60;100240.00;;;;5049832;28;20177;-44
2022/11/28 08:55:46;;;;;;;4.07;3.47;;;14.80;63.10;15.60;100248.00;;;;5049632;28;20201;-45
2022/11/28 08:58:12;;;;;;;3.83;3.20;;;14.90;62.80;15.70;100260.00;;;;5047733;28;20808;-47
2022/11/28 09:00:37;;;;;;;3.23;2.93;;;15.10;62.70;15.80;100246.00;;;;5047595;28;20257;-45
2022/11/28 09:03:03;;;;;;;3.00;2.80;;;15.20;62.40;15.80;100247.00;;;;5049396;28;20178;-45
2022/11/28 09:05:29;;;;;;;3.60;3.07;;;15.40;62.30;15.90;100249.00;;;;5060195;28;20216;-47
2022/11/28 09:07:55;;;;;;;3.07;2.77;;;15.50;62.00;16.00;100245.00;;;;5047503;28;20186;-44
2022/11/28 09:10:21;;;;;;;3.93;2.87;;;15.60;62.00;16.10;100250.00;;;;5030310;28;20205;-45
2022/11/28 09:12:47;;;;;;;4.53;3.00;;;15.80;61.80;16.20;100243.00;;;;5049217;28;20175;-44
2022/11/28 09:15:12;;;;;;;3.30;3.00;;;16.00;61.60;16.30;100246.00;;;;5049250;28;20166;-44
2022/11/28 09:17:39;;;;;;;3.67;2.77;;;16.10;61.30;16.50;100251.00;;;;5049254;28;20209;-44
2022/11/28 09:20:06;;;;;;;3.63;2.87;;;16.30;61.20;16.60;100254.00;;;;5049440;28;20197;-45
2022/11/28 09:22:32;;;;;;;3.17;2.87;;;16.40;61.00;16.70;100244.00;;;;5049286;28;20227;-46
2022/11/28 09:24:57;;;;;;;3.20;2.87;;;16.60;60.90;16.80;100251.00;;;;4994658;28;20239;-44
2022/11/28 09:27:23;;;;;;;3.10;2.80;;;16.70;60.70;16.90;100256.00;;;;5049729;28;20198;-46
2022/11/28 09:29:49;;;;;;;3.50;2.77;;;16.80;60.60;17.00;100253.00;;;;5039057;28;20814;-46
2022/11/28 09:32:14;;;;;;;2.93;2.57;;;16.80;61.00;17.10;100268.00;;;;5049173;28;20181;-46
2022/11/28 09:34:40;;;;;;;3.87;2.70;;;16.90;60.90;17.20;100264.00;;;;5053068;28;20186;-47
2022/11/28 09:37:06;;;;;;;3.10;2.90;;;17.00;61.10;17.30;100267.00;;;;5032111;28;20673;-48
2022/11/28 09:39:32;;;;;;;3.13;2.73;;;17.10;61.50;17.30;100265.00;;;;5057059;28;20662;-49
2022/11/28 09:42:15;;;;;;;2.97;2.73;;;17.10;61.60;17.40;100262.00;;;;5048524;28;20184;-47
2022/11/28 09:45:01;;;;;;;3.60;2.87;;;17.10;61.70;17.50;100263.00;;;;5035108;28;20174;-47
2022/11/28 09:47:31;;;;;;;2.90;2.60;;;17.20;61.70;17.50;100247.00;;;;5032207;28;20201;-46
2022/11/28 09:50:14;;;;;;;4.13;2.70;;;17.20;61.70;17.60;100266.00;;;;5022577;28;20807;-46
2022/11/28 09:53:17;;;;;;;2.60;2.40;;;17.20;61.90;17.60;100270.00;;;;5058034;28;20624;-45
2022/11/28 09:55:51;;;;;;;3.70;2.93;;;17.20;62.30;17.60;100265.00;;;;5034748;28;20240;-46
2022/11/28 09:58:40;;;;;;;6.20;2.80;;;17.30;62.60;17.70;100271.00;;;;5031214;28;20170;-45
2022/11/28 10:01:23;;;;;;;3.00;2.70;;;17.30;63.50;17.70;100269.00;;;;5048787;28;20179;-45
2022/11/28 10:04:05;;;;;;;3.50;2.57;;;17.20;62.50;17.70;100261.00;;;;5032162;28;20165;-48
2022/11/28 10:07:05;;;;;;;3.33;2.70;;;17.20;62.60;17.70;100267.00;;;;5031552;28;20649;-46
2022/11/28 10:10:32;;;;;;;4.77;2.60;;;17.30;62.70;17.80;100264.00;;;;5034829;28;20700;-47
2022/11/28 10:13:20;;;;;;;2.67;2.47;;;17.20;62.70;17.70;100261.00;;;;5032531;28;20187;-45
2022/11/28 10:16:00;;;;;;;3.10;2.80;;;17.20;63.00;17.80;100262.00;;;;5043971;28;20563;-45
2022/11/28 10:18:46;;;;;;;2.83;2.50;;;17.20;63.00;17.80;100261.00;;;;5048921;28;20170;-46
2022/11/28 10:21:54;;;;;;;3.00;2.50;;;17.30;62.90;17.80;100260.00;;;;5016036;28;20168;-47
2022/11/28 10:24:33;;;;;;;2.93;2.70;;;17.30;62.90;17.80;100256.00;;;;4982503;28;20184;-46
2022/11/28 10:27:02;;;;;;;2.77;2.50;;;17.30;62.90;17.80;100248.00;;;;5032683;28;20274;-48
2022/11/28 10:29:36;;;;;;;2.67;2.47;;;17.30;63.00;17.90;100262.00;;;;5031067;28;20196;-45
2022/11/28 10:32:02;;;;;;;3.73;2.80;;;17.30;63.20;17.90;100240.00;;;;5030509;28;20159;-46
2022/11/28 10:34:40;;;;;;;4.50;2.70;;;17.20;63.30;17.90;100255.00;;;;5030960;28;20525;-47
2022/11/28 10:37:19;;;;;;;3.83;2.70;;;17.20;63.70;17.90;100257.00;;;;5031713;28;20235;-47
2022/11/28 10:39:45;;;;;;;3.33;2.60;;;17.30;63.80;17.90;100257.00;;;;5032616;28;20403;-46
2022/11/28 10:42:34;;;;;;;7.10;2.67;;;17.30;63.50;18.00;100252.00;;;;5048095;28;20267;-45
2022/11/28 10:45:16;;;;;;;4.93;2.60;;;17.40;63.50;18.00;100243.00;;;;5044936;28;20192;-46
2022/11/28 10:48:34;;;;;;;5.13;2.57;;;17.40;63.50;18.00;100250.00;;;;5049155;28;20211;-45
2022/11/28 10:51:42;;;;;;;4.33;2.57;;;17.40;63.40;18.00;100250.00;;;;5048560;28;20312;-46
2022/11/28 10:54:22;;;;;;;3.13;2.60;;;17.30;63.30;18.00;100254.00;;;;5016866;28;20282;-46
2022/11/28 10:56:59;;;;;;;6.63;2.67;;;17.30;63.10;18.00;100250.00;;;;5048580;28;20191;-45
2022/11/28 10:59:38;;;;;;;4.27;2.60;;;17.30;63.10;18.00;100265.00;;;;5050189;28;20206;-46
2022/11/28 11:02:32;;;;;;;2.70;2.50;;;17.30;63.10;18.00;100263.00;;;;5051840;28;20656;-48
2022/11/28 11:04:58;;;;;;;4.77;2.50;;;17.30;63.40;18.00;100266.00;;;;5064236;28;20187;-47
2022/11/28 11:07:27;;;;;;;3.73;2.60;;;17.40;63.50;18.00;100265.00;;;;5046268;28;20197;-47
2022/11/28 11:09:53;;;;;;;3.87;2.33;;;17.40;63.40;18.10;100253.00;;;;5037010;28;20282;-46
2022/11/28 11:12:23;;;;;;;2.80;2.40;;;17.50;63.60;18.10;100262.00;;;;5064817;28;20170;-45